createdAt,value
2022-10-22T00:01:54.994Z,7.28
2022-10-22T00:06:56.959Z,6.72
2022-10-22T00:11:58.690Z,7.60
2022-10-22T00:17:04.214Z,6.82
2022-10-22T00:22:09.891Z,6.45
2022-10-22T00:27:12.692Z,6.00
2022-10-22T00:32:15.154Z,6.60
2022-10-22T00:37:16.852Z,6.85
2022-10-22T00:42:21.903Z,7.22
2022-10-22T00:47:25.210Z,7.20
2022-10-22T00:52:27.269Z,6.78
2022-10-22T00:57:29.255Z,6.65
2022-10-22T01:02:30.827Z,6.38
2022-10-22T01:13:35.403Z,6.65
2022-10-22T01:19:01.053Z,6.20
2022-10-22T01:24:11.374Z,6.55
2022-10-22T01:29:25.758Z,6.18
2022-10-22T01:34:29.502Z,5.38
2022-10-22T01:39:31.690Z,5.40
2022-10-22T01:50:04.978Z,5.97
2022-10-22T01:55:26.877Z,5.82
2022-10-22T02:00:29.155Z,5.63
2022-10-22T02:05:38.504Z,5.35
2022-10-22T02:10:44.630Z,6.07
2022-10-22T02:15:50.307Z,5.22
2022-10-22T02:20:52.971Z,4.90
2022-10-22T02:26:09.317Z,5.30
2022-10-22T02:31:17.357Z,5.68
2022-10-22T02:36:19.221Z,6.28
2022-10-22T02:41:21.288Z,6.68
2022-10-22T02:46:25.661Z,8.43
2022-10-22T02:51:27.409Z,8.40
2022-10-22T02:56:28.841Z,8.98
2022-10-22T03:01:30.566Z,9.55
2022-10-22T03:06:32.863Z,9.57
2022-10-22T03:11:34.716Z,9.88
2022-10-22T03:16:36.437Z,8.73
2022-10-22T03:21:50.735Z,8.20
2022-10-22T03:26:52.927Z,9.13
2022-10-22T03:31:55.836Z,8.27
2022-10-22T03:37:02.098Z,8.50
2022-10-22T03:42:07.743Z,8.70
2022-10-22T03:47:16.138Z,9.07
2022-10-22T03:52:18.178Z,7.88
2022-10-22T03:57:19.625Z,8.05
2022-10-22T04:02:22.680Z,7.30
2022-10-22T04:07:24.581Z,7.35
2022-10-22T04:12:26.234Z,6.97
2022-10-22T04:17:34.744Z,7.88
2022-10-22T04:22:37.153Z,6.97
2022-10-22T04:27:38.778Z,6.88
2022-10-22T04:32:44.431Z,5.68
2022-10-22T04:37:48.102Z,6.47
2022-10-22T04:42:49.881Z,6.47
2022-10-22T04:47:51.366Z,7.32
2022-10-22T04:52:56.834Z,6.93
2022-10-22T04:57:58.914Z,6.30
2022-10-22T05:03:00.577Z,5.85
2022-10-22T05:08:02.936Z,6.38
2022-10-22T05:13:08.421Z,7.10
2022-10-22T05:18:10.100Z,5.75
2022-10-22T05:23:11.775Z,6.18
2022-10-22T05:28:13.736Z,6.57
2022-10-22T05:33:15.152Z,7.78
2022-10-22T05:38:17.614Z,6.88
2022-10-22T05:43:19.082Z,6.25
2022-10-22T05:48:20.546Z,6.07
2022-10-22T05:53:22.448Z,6.40
2022-10-22T05:58:24.165Z,6.13
2022-10-22T06:03:26.086Z,6.63
2022-10-22T06:08:28.131Z,6.80
2022-10-22T06:13:29.581Z,6.90
2022-10-22T06:18:31.074Z,7.65
2022-10-22T06:23:33.115Z,5.80
2022-10-22T06:28:34.809Z,5.35
2022-10-22T06:33:42.081Z,5.38
2022-10-22T06:38:44.097Z,6.00
2022-10-22T06:43:49.650Z,8.25
2022-10-22T06:49:00.997Z,6.10
2022-10-22T06:54:02.523Z,6.82
2022-10-22T06:59:04.298Z,8.02
2022-10-22T07:04:06.781Z,9.35
2022-10-22T07:09:08.541Z,9.88
2022-10-22T07:14:11.292Z,10.13
2022-10-22T07:19:13.403Z,11.43
2022-10-22T07:24:14.892Z,11.43
2022-10-22T07:29:16.890Z,11.70
2022-10-22T07:39:25.891Z,11.07
2022-10-22T07:44:27.556Z,12.05
2022-10-22T07:49:29.065Z,14.57
2022-10-22T07:54:30.545Z,17.70
2022-10-22T07:59:32.060Z,14.10
2022-10-22T08:04:33.862Z,8.25
2022-10-22T08:09:36.119Z,6.82
2022-10-22T08:14:40.556Z,6.93
2022-10-22T08:19:42.397Z,6.57
2022-10-22T08:24:44.079Z,7.25
2022-10-22T08:29:49.278Z,6.78
2022-10-22T08:34:50.952Z,7.93
2022-10-22T08:39:52.498Z,6.32
2022-10-22T08:45:06.265Z,6.00
2022-10-22T08:50:15.656Z,6.55
2022-10-22T08:55:17.525Z,5.78
2022-10-22T09:00:34.201Z,5.75
2022-10-22T09:05:41.793Z,5.60
2022-10-22T09:10:49.017Z,4.90
2022-10-22T09:15:54.962Z,4.30
2022-10-22T09:21:17.040Z,4.70
2022-10-22T09:26:18.510Z,4.50
2022-10-22T09:31:20.012Z,4.05
2022-10-22T09:36:22.865Z,4.72
2022-10-22T09:41:32.328Z,4.03
2022-10-22T09:46:43.940Z,3.95
2022-10-22T09:51:56.153Z,3.55
2022-10-22T09:57:22.032Z,3.83
2022-10-22T10:02:37.928Z,3.70
2022-10-22T10:07:40.782Z,3.47
2022-10-22T10:12:48.209Z,3.70
2022-10-22T10:18:04.054Z,3.58
2022-10-22T10:23:27.933Z,3.88
2022-10-22T10:29:00.484Z,3.53
2022-10-22T10:34:31.625Z,3.63
2022-10-22T10:40:10.457Z,3.15
2022-10-22T10:45:24.214Z,2.80
2022-10-22T10:50:47.722Z,2.92
2022-10-22T10:56:07.527Z,2.20
2022-10-22T11:06:27.592Z,2.85
2022-10-22T11:11:38.654Z,2.88
2022-10-22T11:16:46.650Z,3.25
2022-10-22T11:22:10.530Z,2.70
2022-10-22T11:27:31.354Z,3.00
2022-10-22T11:32:33.321Z,3.10
2022-10-22T11:37:39.159Z,4.43
2022-10-22T11:42:46.580Z,4.25
2022-10-22T11:47:57.609Z,3.33
2022-10-22T11:53:03.818Z,3.15
2022-10-22T11:58:28.364Z,2.80
2022-10-22T12:03:52.621Z,3.50
2022-10-22T12:08:54.931Z,3.60
2022-10-22T12:14:20.101Z,3.85
2022-10-22T12:19:31.749Z,3.35
2022-10-22T12:24:39.046Z,3.38
2022-10-22T12:29:42.554Z,3.45
2022-10-22T12:34:56.179Z,3.50
2022-10-22T12:40:37.229Z,3.58
2022-10-22T12:45:40.180Z,3.25
2022-10-22T12:50:47.887Z,2.95
2022-10-22T12:55:52.081Z,2.55
2022-10-22T13:00:59.538Z,2.20
2022-10-22T13:06:20.261Z,2.25
2022-10-22T13:11:22.062Z,2.13
2022-10-22T13:16:26.099Z,2.10
2022-10-22T13:21:39.839Z,2.20
2022-10-22T13:26:41.876Z,2.20
2022-10-22T13:31:50.180Z,2.60
2022-10-22T13:36:54.123Z,2.20
2022-10-22T13:41:55.636Z,2.35
2022-10-22T13:46:57.098Z,3.85
2022-10-22T13:52:00.539Z,2.70
2022-10-22T13:57:02.259Z,2.42
2022-10-22T14:02:07.250Z,2.97
2022-10-22T14:07:14.279Z,2.92
2022-10-22T14:12:17.437Z,2.40
2022-10-22T14:17:20.020Z,2.58
2022-10-22T14:22:23.679Z,2.30
2022-10-22T14:27:25.239Z,2.92
2022-10-22T14:32:28.319Z,2.67
2022-10-22T14:37:29.945Z,3.08
2022-10-22T14:42:32.876Z,3.28
2022-10-22T14:47:36.970Z,2.90
2022-10-22T14:52:38.560Z,2.72
2022-10-22T14:57:40.990Z,3.25
2022-10-22T15:02:43.706Z,3.13
2022-10-22T15:07:48.431Z,3.47
2022-10-22T15:12:52.885Z,3.95
2022-10-22T15:17:54.417Z,3.58
2022-10-22T15:22:56.730Z,3.22
2022-10-22T15:28:00.838Z,3.60
2022-10-22T15:33:06.980Z,3.22
2022-10-22T15:38:09.240Z,3.45
2022-10-22T15:43:11.417Z,3.38
2022-10-22T15:48:19.624Z,3.80
2022-10-22T15:53:21.315Z,4.40
2022-10-22T15:58:22.849Z,3.35
2022-10-22T16:03:24.477Z,3.05
2022-10-22T16:08:30.262Z,3.60
2022-10-22T16:13:31.835Z,3.83
2022-10-22T16:18:33.838Z,3.67
2022-10-22T16:23:35.491Z,3.55
2022-10-22T16:28:37.027Z,3.47
2022-10-22T16:33:46.458Z,3.75
2022-10-22T16:38:51.362Z,3.30
2022-10-22T16:43:55.198Z,3.72
2022-10-22T16:48:56.852Z,4.35
2022-10-22T16:53:58.295Z,4.07
2022-10-22T16:58:59.773Z,5.18
2022-10-22T17:04:01.665Z,7.03
2022-10-22T17:09:03.545Z,6.50
2022-10-22T17:14:05.613Z,5.85
2022-10-22T17:19:07.253Z,4.32
2022-10-22T17:24:09.851Z,4.35
2022-10-22T17:29:13.094Z,4.10
2022-10-22T17:34:17.660Z,4.65
2022-10-22T17:39:23.602Z,5.00
2022-10-22T17:44:25.636Z,5.43
2022-10-22T17:49:30.349Z,5.25
2022-10-22T17:54:33.001Z,5.47
2022-10-22T17:59:34.541Z,5.90
2022-10-22T18:04:36.040Z,5.10
2022-10-22T18:09:39.437Z,5.25
2022-10-22T18:14:42.006Z,5.60
2022-10-22T18:19:47.932Z,6.35
2022-10-22T18:24:50.818Z,5.75
2022-10-22T18:29:52.266Z,4.88
2022-10-22T18:34:54.104Z,5.65
2022-10-22T18:39:57.410Z,5.60
2022-10-22T18:45:01.063Z,5.15
2022-10-22T18:50:02.748Z,4.63
2022-10-22T18:55:04.987Z,5.00
2022-10-22T19:00:07.407Z,4.53
2022-10-22T19:05:09.476Z,5.00
2022-10-22T19:10:12.925Z,4.90
2022-10-22T19:15:14.524Z,5.07
2022-10-22T19:20:17.428Z,6.28
2022-10-22T19:25:20.000Z,5.35
2022-10-22T19:30:21.469Z,5.45
2022-10-22T19:35:23.158Z,5.20
2022-10-22T19:40:27.423Z,5.07
2022-10-22T19:45:31.588Z,6.22
2022-10-22T19:50:36.281Z,5.05
2022-10-22T19:55:46.435Z,5.43
2022-10-22T20:00:48.238Z,5.47
2022-10-22T20:05:53.098Z,5.72
2022-10-22T20:10:54.806Z,6.25
2022-10-22T20:15:56.867Z,6.18
2022-10-22T20:20:58.665Z,6.57
2022-10-22T20:26:01.055Z,6.95
2022-10-22T20:31:21.011Z,5.53
2022-10-22T20:36:24.125Z,6.60
2022-10-22T20:41:31.806Z,6.68
2022-10-22T20:46:34.288Z,7.35
2022-10-22T20:51:40.009Z,6.90
2022-10-22T20:56:42.546Z,7.00
2022-10-22T21:01:47.662Z,7.85
2022-10-22T21:06:50.364Z,8.38
2022-10-22T21:11:55.808Z,7.03
2022-10-22T21:16:59.738Z,7.30
2022-10-22T21:22:01.777Z,7.25
2022-10-22T21:27:03.955Z,6.90
2022-10-22T21:32:05.424Z,7.22
2022-10-22T21:37:06.897Z,6.80
2022-10-22T21:42:08.410Z,6.53
2022-10-22T21:47:09.925Z,6.53
2022-10-22T21:52:11.450Z,6.25
2022-10-22T21:57:12.898Z,6.47
2022-10-22T22:02:14.474Z,6.53
2022-10-22T22:07:41.231Z,5.82
2022-10-22T22:12:43.535Z,5.35
2022-10-22T22:17:46.425Z,6.15
2022-10-22T22:22:48.119Z,6.15
2022-10-22T22:27:49.747Z,6.45
2022-10-22T22:32:51.300Z,5.70
2022-10-22T22:37:53.261Z,5.50
2022-10-22T22:42:54.775Z,5.18
2022-10-22T22:47:57.165Z,5.55
2022-10-22T22:52:59.063Z,5.20
2022-10-22T22:58:00.804Z,5.35
2022-10-22T23:03:02.875Z,5.70
2022-10-22T23:08:04.965Z,5.60
2022-10-22T23:13:06.604Z,5.00
2022-10-22T23:18:08.026Z,5.47
2022-10-22T23:23:10.060Z,5.00
2022-10-22T23:28:15.120Z,5.68
2022-10-22T23:33:17.199Z,5.10
2022-10-22T23:38:18.669Z,5.28
2022-10-22T23:43:20.126Z,5.15
2022-10-22T23:48:22.219Z,4.85
2022-10-22T23:53:26.412Z,4.95
2022-10-22T23:58:27.833Z,4.18
